Time;durP1;ratioP1;P1;durP2;ratioP2;P2;SDS_P1;SDS_P2;PMS_P1;PMS_P2;Temp;Humidity;BMP_temperature;BMP_pressure;BME280_temperature;BME280_humidity;BME280_pressure;Samples;Min_cycle;Max_cycle;Signal;HPM_P1;HPM_P2
2024/01/09 07:49:28;;;;;;;21.67;9.70;;;;;;;;;;2082741;28;20572;-59
2024/01/09 07:55:46;;;;;;;26.55;10.55;;;;;;;;;;2084647;28;20558;-59
2024/01/09 07:56:48;;;;;;;22.45;10.63;;;;;;;;;;2081431;28;20584;-59
2024/01/09 07:57:49;;;;;;;18.38;10.32;;;;;;;;;;2075395;28;20230;-59
2024/01/09 07:58:51;;;;;;;106.43;46.63;;;;;;;;;;2069557;28;20232;-63
2024/01/09 07:59:52;;;;;;;164.55;68.15;;;;;;;;;;2072341;28;20254;-61
2024/01/09 08:00:54;;;;;;;134.10;56.58;;;;;;;;;;2080629;28;20754;-61
2024/01/09 08:01:55;;;;;;;75.72;35.70;;;;;;;;;;2073677;28;20233;-60
2024/01/09 08:02:57;;;;;;;26.13;11.82;;;;;;;;;;2073097;28;20220;-60
2024/01/09 08:03:58;;;;;;;18.23;9.82;;;;;;;;;;2072950;28;20592;-60
2024/01/09 08:05:00;;;;;;;27.23;12.05;;;;;;;;;;2072413;28;20264;-60
2024/01/09 08:06:01;;;;;;;22.30;11.00;;;;;;;;;;2072464;28;20252;-59
2024/01/09 08:07:03;;;;;;;22.98;10.68;;;;;;;;;;2073003;28;20209;-60
2024/01/09 08:08:04;;;;;;;17.40;9.98;;;;;;;;;;2069675;28;20225;-59
2024/01/09 08:09:06;;;;;;;17.80;9.98;;;;;;;;;;2073039;28;20846;-60
2024/01/09 08:10:07;;;;;;;26.60;11.23;;;;;;;;;;2074313;28;20260;-59
2024/01/09 08:11:09;;;;;;;23.08;11.32;;;;;;;;;;2072197;28;20689;-59
2024/01/09 08:12:11;;;;;;;19.42;10.25;;;;;;;;;;2075229;28;20198;-60
2024/01/09 08:13:12;;;;;;;25.17;12.25;;;;;;;;;;2071520;28;20230;-60
2024/01/09 08:14:14;;;;;;;22.98;10.52;;;;;;;;;;2073476;28;20194;-59
2024/01/09 08:15:16;;;;;;;22.20;11.73;;;;;;;;;;2073872;28;20212;-59
2024/01/09 08:16:17;;;;;;;18.20;9.68;;;;;;;;;;2072796;28;20199;-60
2024/01/09 08:17:19;;;;;;;22.73;11.75;;;;;;;;;;2073380;28;20192;-59
2024/01/09 08:18:20;;;;;;;24.95;11.93;;;;;;;;;;2071171;28;20223;-59
2024/01/09 08:19:22;;;;;;;22.65;10.25;;;;;;;;;;2071000;28;20386;-59
2024/01/09 08:20:23;;;;;;;23.50;12.00;;;;;;;;;;2072239;28;20209;-60
2024/01/09 08:21:25;;;;;;;23.33;11.15;;;;;;;;;;2074636;28;20184;-60
2024/01/09 08:22:26;;;;;;;23.88;10.70;;;;;;;;;;2072377;28;20214;-59
2024/01/09 08:38:40;;;;;;;22.35;10.27;;;;;;;;;;2091764;27;20574;-59
2024/01/09 08:44:08;;;;;;;19.67;9.30;;;;;;;;;;2083196;28;20546;-65
2024/01/09 08:46:02;;;;;;;20.05;10.52;;;;;;;;;;2084654;28;20558;-66
2024/01/09 08:47:58;;;;;;;25.02;9.55;;;;;;;;;;2093312;27;20571;-65
2024/01/09 08:49:00;;;;;;;17.35;9.05;;;;;;;;;;2087633;28;20225;-66
2024/01/09 08:50:02;;;;;;;25.90;11.07;;;;;;;;;;2088149;28;20212;-65
2024/01/09 08:51:03;;;;;;;22.55;9.65;;;;;;;;;;2084663;28;20206;-64
2024/01/09 08:52:13;;;;;;;20.98;10.63;;;;;;;;;;2090354;28;20193;-65
2024/01/09 08:53:14;;;;;;;22.60;10.65;;;;;;;;;;2080817;28;20240;-66
2024/01/09 08:54:15;;;;;;;31.33;11.43;;;;;;;;;;2082736;28;20351;-64
2024/01/09 08:55:17;;;;;;;19.73;9.65;;;;;;;;;;2081384;28;20369;-66
2024/01/09 08:56:18;;;;;;;24.23;11.75;;;;;;;;;;2078219;28;20256;-65
2024/01/09 08:57:20;;;;;;;24.17;10.93;;;;;;;;;;2079639;28;20555;-63
2024/01/09 08:58:21;;;;;;;23.75;9.95;;;;;;;;;;2082116;28;20229;-65
2024/01/09 08:59:23;;;;;;;23.95;11.07;;;;;;;;;;2080853;28;20235;-65
2024/01/09 09:00:25;;;;;;;21.38;11.02;;;;;;;;;;2079478;28;20193;-65
2024/01/09 09:01:26;;;;;;;19.98;9.63;;;;;;;;;;2079624;28;20625;-65
2024/01/09 09:02:28;;;;;;;21.40;10.77;;;;;;;;;;2075294;28;20197;-66
2024/01/09 09:03:30;;;;;;;20.45;9.75;;;;;;;;;;2070770;28;20716;-66
2024/01/09 09:04:31;;;;;;;23.17;10.70;;;;;;;;;;2078580;28;20212;-66
2024/01/09 09:05:33;;;;;;;18.83;9.73;;;;;;;;;;2082397;28;20609;-66
2024/01/09 09:06:38;;;;;;;19.73;9.05;;;;;;;;;;2085213;28;20191;-66
2024/01/09 09:07:39;;;;;;;20.48;9.45;;;;;;;;;;2074704;28;20246;-66
2024/01/09 09:08:41;;;;;;;20.73;9.82;;;;;;;;;;2074264;28;20192;-66
2024/01/09 09:09:42;;;;;;;24.63;11.75;;;;;;;;;;2082519;28;20668;-66
2024/01/09 09:10:44;;;;;;;16.85;9.07;;;;;;;;;;2082139;28;20691;-65
2024/01/09 09:11:45;;;;;;;21.13;10.00;;;;;;;;;;2076209;28;20666;-66
2024/01/09 09:12:47;;;;;;;19.55;10.60;;;;;;;;;;2075164;28;20246;-65
2024/01/09 09:13:49;;;;;;;28.13;12.65;;;;;;;;;;2083035;28;20199;-64
2024/01/09 09:14:50;;;;;;;20.92;11.32;;;;;;;;;;2084940;28;20674;-65
2024/01/09 09:15:51;;;;;;;24.10;10.88;;;;;;;;;;2080547;28;20200;-66
2024/01/09 09:16:53;;;;;;;45.67;19.50;;;;;;;;;;2080799;28;20228;-68
2024/01/09 09:17:54;;;;;;;69.70;33.08;;;;;;;;;;2075390;28;20263;-66
2024/01/09 09:18:56;;;;;;;83.72;41.20;;;;;;;;;;2080073;28;20192;-68
2024/01/09 09:19:59;;;;;;;75.53;36.00;;;;;;;;;;2081507;28;20199;-65
2024/01/09 09:21:01;;;;;;;27.08;14.10;;;;;;;;;;2083481;28;20185;-65
2024/01/09 09:22:02;;;;;;;21.90;10.50;;;;;;;;;;2078793;28;20188;-60
2024/01/09 09:23:05;;;;;;;24.17;10.90;;;;;;;;;;2078596;28;20219;-60
2024/01/09 09:24:07;;;;;;;21.35;10.85;;;;;;;;;;2077660;28;20193;-60
2024/01/09 09:25:09;;;;;;;18.92;9.73;;;;;;;;;;2080404;28;20355;-60
2024/01/09 09:26:10;;;;;;;21.80;9.38;;;;;;;;;;2084237;28;20197;-61
2024/01/09 09:27:11;;;;;;;20.20;10.07;;;;;;;;;;2084782;28;20364;-61
2024/01/09 09:28:13;;;;;;;15.75;9.60;;;;;;;;;;2068680;28;20283;-60
2024/01/09 09:29:14;;;;;;;20.48;9.65;;;;;;;;;;2078431;28;20197;-60
2024/01/09 09:30:32;;;;;;;23.73;10.32;;;;;;;;;;2082352;28;20279;-60
2024/01/09 09:31:34;;;;;;;24.55;12.63;;;;;;;;;;2080636;28;20203;-65
2024/01/09 09:32:36;;;;;;;19.35;9.10;;;;;;;;;;2077661;28;20209;-65
2024/01/09 09:33:37;;;;;;;22.33;11.20;;;;;;;;;;2080570;28;20238;-66
2024/01/09 09:34:42;;;;;;;25.08;10.05;;;;;;;;;;2083845;28;20192;-65
2024/01/09 09:35:47;;;;;;;18.48;8.98;;;;;;;;;;2078956;28;20205;-66
2024/01/09 09:36:48;;;;;;;31.00;10.48;;;;;;;;;;2076782;28;20287;-65
2024/01/09 09:37:49;;;;;;;23.55;10.50;;;;;;;;;;2078473;28;20239;-60
2024/01/09 09:38:54;;;;;;;17.58;9.88;;;;;;;;;;2081567;28;20236;-60
2024/01/09 09:39:56;;;;;;;22.30;10.75;;;;;;;;;;2077110;28;20571;-61
2024/01/09 09:40:57;;;;;;;20.38;8.88;;;;;;;;;;2077552;28;20339;-61
2024/01/09 09:41:59;;;;;;;22.17;10.25;;;;;;;;;;2082428;28;20197;-61
2024/01/09 09:43:02;;;;;;;21.98;10.38;;;;;;;;;;2082813;28;20221;-60
2024/01/09 09:44:06;;;;;;;18.40;9.98;;;;;;;;;;2081203;28;20279;-61
2024/01/09 09:45:11;;;;;;;27.33;11.18;;;;;;;;;;2077713;28;20201;-59
2024/01/09 09:46:17;;;;;;;21.60;10.15;;;;;;;;;;2080433;28;20202;-59
2024/01/09 09:47:19;;;;;;;18.10;9.38;;;;;;;;;;2080694;28;20699;-60
2024/01/09 09:48:23;;;;;;;23.65;10.70;;;;;;;;;;2080369;28;20243;-60
2024/01/09 09:49:25;;;;;;;20.40;9.68;;;;;;;;;;2080608;28;20197;-60
2024/01/09 09:50:27;;;;;;;20.58;10.07;;;;;;;;;;2077628;28;20682;-60
2024/01/09 09:51:29;;;;;;;24.00;12.00;;;;;;;;;;2076920;28;20198;-60
2024/01/09 09:52:32;;;;;;;21.52;10.98;;;;;;;;;;2070944;28;20247;-60
2024/01/09 09:53:35;;;;;;;25.52;10.15;;;;;;;;;;2078453;28;20249;-66
2024/01/09 09:54:37;;;;;;;21.38;10.52;;;;;;;;;;2076278;28;21058;-61
2024/01/09 09:55:40;;;;;;;22.30;10.80;;;;;;;;;;2073765;28;20705;-61
2024/01/09 09:56:41;;;;;;;36.60;10.52;;;;;;;;;;2081689;28;20192;-61
2024/01/09 09:57:44;;;;;;;20.67;10.40;;;;;;;;;;2078326;28;20224;-61
2024/01/09 09:58:45;;;;;;;21.02;10.70;;;;;;;;;;2081234;28;20291;-62
2024/01/09 09:59:47;;;;;;;24.20;10.40;;;;;;;;;;2077999;28;20295;-61
2024/01/09 10:00:49;;;;;;;26.58;10.75;;;;;;;;;;2074360;28;20247;-61
2024/01/09 10:01:51;;;;;;;23.77;9.70;;;;;;;;;;2074337;28;20194;-60
2024/01/09 10:02:53;;;;;;;23.25;10.20;;;;;;;;;;2074896;28;21038;-60
2024/01/09 10:04:02;;;;;;;34.20;11.75;;;;;;;;;;2077020;28;20189;-60
2024/01/09 10:05:13;;;;;;;23.08;10.43;;;;;;;;;;2075420;28;20668;-60
2024/01/09 10:06:16;;;;;;;21.13;10.23;;;;;;;;;;2074677;28;20192;-61
2024/01/09 10:07:22;;;;;;;22.02;10.38;;;;;;;;;;2074903;28;20193;-60
2024/01/09 10:08:24;;;;;;;24.20;10.20;;;;;;;;;;2069783;28;20213;-60
2024/01/09 10:09:37;;;;;;;24.65;10.85;;;;;;;;;;2063771;28;20207;-60
2024/01/09 10:10:39;;;;;;;27.77;11.65;;;;;;;;;;2066879;28;20193;-60
2024/01/09 10:11:40;;;;;;;29.33;10.70;;;;;;;;;;2072428;28;20225;-60
2024/01/09 10:12:42;;;;;;;23.48;10.25;;;;;;;;;;2075267;28;20200;-60
2024/01/09 10:13:43;;;;;;;23.13;10.88;;;;;;;;;;2073152;28;20219;-59
2024/01/09 10:15:04;;;;;;;19.40;10.80;;;;;;;;;;2073931;28;20206;-60
2024/01/09 10:16:05;;;;;;;22.52;10.75;;;;;;;;;;2071971;28;20233;-60
2024/01/09 10:17:12;;;;;;;32.78;9.93;;;;;;;;;;2071516;28;20252;-59
2024/01/09 10:18:13;;;;;;;22.15;10.95;;;;;;;;;;2068232;28;20927;-61
2024/01/09 10:19:16;;;;;;;29.42;10.85;;;;;;;;;;2074456;28;20201;-60
2024/01/09 10:20:17;;;;;;;27.75;10.45;;;;;;;;;;2075992;28;20201;-59
2024/01/09 10:21:19;;;;;;;23.58;10.70;;;;;;;;;;2073178;28;20197;-59
2024/01/09 10:22:21;;;;;;;34.33;10.77;;;;;;;;;;2079985;28;20202;-60
2024/01/09 10:23:22;;;;;;;18.50;9.77;;;;;;;;;;2071699;28;20223;-60
2024/01/09 10:24:24;;;;;;;26.42;10.52;;;;;;;;;;2073938;28;20663;-72
2024/01/09 10:25:26;;;;;;;30.73;10.45;;;;;;;;;;2075034;28;20206;-72
2024/01/09 10:26:27;;;;;;;23.17;11.63;;;;;;;;;;2072747;28;20193;-72
2024/01/09 10:27:29;;;;;;;21.58;10.85;;;;;;;;;;2062651;28;20197;-71
2024/01/09 10:28:30;;;;;;;21.73;11.57;;;;;;;;;;2074165;28;20237;-72
2024/01/09 10:29:31;;;;;;;19.80;10.38;;;;;;;;;;2072432;28;20289;-72
2024/01/09 10:30:33;;;;;;;21.63;11.50;;;;;;;;;;2072766;28;20201;-72
2024/01/09 10:31:34;;;;;;;24.67;10.93;;;;;;;;;;2070591;28;20289;-72
2024/01/09 10:32:36;;;;;;;22.05;10.50;;;;;;;;;;2073066;28;20867;-59
2024/01/09 10:33:40;;;;;;;20.27;9.48;;;;;;;;;;2072946;28;20589;-59
2024/01/09 10:34:43;;;;;;;20.92;10.85;;;;;;;;;;2070865;28;20700;-59
2024/01/09 10:35:44;;;;;;;24.13;10.63;;;;;;;;;;2069645;28;20209;-59
2024/01/09 10:36:46;;;;;;;20.75;10.27;;;;;;;;;;2078118;28;20204;-59
2024/01/09 10:37:52;;;;;;;22.00;10.65;;;;;;;;;;2073791;28;20229;-59
2024/01/09 10:39:04;;;;;;;20.48;10.60;;;;;;;;;;2072801;28;20256;-59
2024/01/09 10:40:06;;;;;;;22.85;10.98;;;;;;;;;;2074586;28;20199;-59
2024/01/09 10:41:17;;;;;;;22.60;11.13;;;;;;;;;;2071848;28;20845;-59
2024/01/09 10:42:19;;;;;;;19.73;10.30;;;;;;;;;;2073324;28;20205;-59
2024/01/09 10:43:22;;;;;;;20.33;10.60;;;;;;;;;;2074403;28;20315;-59
2024/01/09 10:44:24;;;;;;;26.45;10.73;;;;;;;;;;2074736;28;20239;-58
2024/01/09 10:45:26;;;;;;;27.73;12.70;;;;;;;;;;2072267;28;20201;-59
2024/01/09 10:46:29;;;;;;;29.23;12.25;;;;;;;;;;2072006;28;20239;-59
2024/01/09 10:47:32;;;;;;;22.65;10.27;;;;;;;;;;2072821;28;20308;-58
2024/01/09 10:48:34;;;;;;;24.05;11.10;;;;;;;;;;2074664;28;20279;-60
2024/01/09 10:49:38;;;;;;;24.90;11.25;;;;;;;;;;2071206;28;20675;-60
2024/01/09 10:50:40;;;;;;;23.65;11.90;;;;;;;;;;2073557;28;20204;-71
2024/01/09 10:51:42;;;;;;;29.15;11.65;;;;;;;;;;2070621;28;20207;-71
2024/01/09 10:52:44;;;;;;;21.73;11.48;;;;;;;;;;2070839;28;20283;-71
2024/01/09 10:53:47;;;;;;;34.92;12.18;;;;;;;;;;2072946;28;20246;-72
2024/01/09 10:54:49;;;;;;;24.75;10.45;;;;;;;;;;2073098;28;20216;-71
2024/01/09 10:55:54;;;;;;;23.73;10.10;;;;;;;;;;2071337;28;20599;-65
2024/01/09 10:56:55;;;;;;;25.45;11.20;;;;;;;;;;2073546;28;20645;-69
2024/01/09 10:57:57;;;;;;;20.38;9.82;;;;;;;;;;2074596;28;20232;-68
2024/01/09 10:58:59;;;;;;;23.60;11.15;;;;;;;;;;2070285;28;20317;-68
2024/01/09 11:00:00;;;;;;;23.45;11.73;;;;;;;;;;2068719;28;20203;-68
2024/01/09 11:01:03;;;;;;;20.75;10.95;;;;;;;;;;2073297;28;20205;-68
2024/01/09 11:02:07;;;;;;;26.52;11.68;;;;;;;;;;2074888;28;20208;-69
2024/01/09 11:03:11;;;;;;;22.08;11.80;;;;;;;;;;2070966;28;20300;-69
2024/01/09 11:04:12;;;;;;;22.20;10.25;;;;;;;;;;2072328;28;20198;-69
2024/01/09 11:05:14;;;;;;;21.30;11.27;;;;;;;;;;2073258;28;20201;-69
2024/01/09 11:06:16;;;;;;;24.85;12.13;;;;;;;;;;2071821;28;20506;-69
2024/01/09 11:07:18;;;;;;;24.42;11.07;;;;;;;;;;2072760;28;20212;-69
2024/01/09 11:08:20;;;;;;;25.05;12.07;;;;;;;;;;2072011;28;20263;-69
2024/01/09 11:09:22;;;;;;;25.75;12.55;;;;;;;;;;2074113;28;20228;-68
2024/01/09 11:10:24;;;;;;;20.42;10.40;;;;;;;;;;2074938;28;20246;-68
2024/01/09 11:11:26;;;;;;;24.80;11.65;;;;;;;;;;2074051;28;20195;-68
2024/01/09 11:12:34;;;;;;;29.98;13.02;;;;;;;;;;2073972;28;20198;-70
2024/01/09 11:13:37;;;;;;;22.02;12.10;;;;;;;;;;2079186;28;20210;-70
2024/01/09 11:14:39;;;;;;;23.05;10.82;;;;;;;;;;2081305;28;20198;-70
2024/01/09 11:15:47;;;;;;;24.30;11.52;;;;;;;;;;2081697;28;20194;-71
2024/01/09 11:16:49;;;;;;;23.27;10.45;;;;;;;;;;2081639;28;20216;-71
2024/01/09 11:17:53;;;;;;;21.70;10.25;;;;;;;;;;2081140;28;20670;-71
2024/01/09 11:18:55;;;;;;;25.23;10.70;;;;;;;;;;2084786;28;20208;-71
2024/01/09 11:19:57;;;;;;;21.48;11.30;;;;;;;;;;2075129;28;20233;-71
2024/01/09 11:21:02;;;;;;;23.67;11.85;;;;;;;;;;2076046;28;20910;-71
2024/01/09 11:22:22;;;;;;;24.52;10.57;;;;;;;;;;2078137;28;20206;-72
2024/01/09 11:23:42;;;;;;;25.20;10.88;;;;;;;;;;2077193;28;20221;-71
2024/01/09 11:24:50;;;;;;;20.55;10.68;;;;;;;;;;2076886;28;20820;-71
2024/01/09 11:25:53;;;;;;;20.50;10.50;;;;;;;;;;2078703;28;20216;-71
2024/01/09 11:27:11;;;;;;;21.95;10.30;;;;;;;;;;2076531;28;20221;-71
2024/01/09 11:28:30;;;;;;;17.52;9.27;;;;;;;;;;2081707;28;20840;-71
2024/01/09 11:29:48;;;;;;;32.95;14.27;;;;;;;;;;2084753;28;20196;-71
2024/01/09 11:30:51;;;;;;;21.02;10.85;;;;;;;;;;2078199;28;20283;-71
2024/01/09 11:31:52;;;;;;;27.75;9.70;;;;;;;;;;2077475;28;20676;-71
2024/01/09 11:32:57;;;;;;;26.02;10.43;;;;;;;;;;2078616;28;20273;-69
2024/01/09 11:34:01;;;;;;;20.58;9.93;;;;;;;;;;2079525;28;20232;-69
2024/01/09 11:35:09;;;;;;;43.78;11.25;;;;;;;;;;2079327;28;20198;-69
2024/01/09 11:36:11;;;;;;;23.17;10.90;;;;;;;;;;2081266;28;20296;-68
2024/01/09 11:37:14;;;;;;;22.80;10.20;;;;;;;;;;2078695;28;20202;-69
2024/01/09 11:38:17;;;;;;;26.60;10.60;;;;;;;;;;2079364;28;20875;-69
2024/01/09 11:39:19;;;;;;;21.65;9.45;;;;;;;;;;2080687;28;20227;-68
2024/01/09 11:40:21;;;;;;;24.77;10.90;;;;;;;;;;2078255;28;20248;-68
2024/01/09 11:41:23;;;;;;;22.88;10.38;;;;;;;;;;2082162;28;20216;-69
2024/01/09 11:42:25;;;;;;;21.90;10.90;;;;;;;;;;2083544;28;20196;-69
2024/01/09 11:43:27;;;;;;;16.00;9.73;;;;;;;;;;2079962;28;20765;-69
2024/01/09 11:44:28;;;;;;;26.85;11.73;;;;;;;;;;2084874;28;20649;-69
2024/01/09 11:45:30;;;;;;;24.20;10.00;;;;;;;;;;2084479;28;20193;-69
2024/01/09 11:46:33;;;;;;;24.48;10.68;;;;;;;;;;2078186;28;20201;-69
2024/01/09 11:47:35;;;;;;;19.73;11.25;;;;;;;;;;2078806;28;20640;-70
2024/01/09 11:48:39;;;;;;;20.00;10.38;;;;;;;;;;2077455;28;20558;-69
2024/01/09 11:49:40;;;;;;;20.70;10.48;;;;;;;;;;2076311;28;20194;-70
2024/01/09 11:50:42;;;;;;;23.10;10.40;;;;;;;;;;2081981;28;20189;-70
2024/01/09 11:51:43;;;;;;;22.33;10.75;;;;;;;;;;2082595;28;20190;-70
2024/01/09 11:52:46;;;;;;;25.85;11.30;;;;;;;;;;2080774;28;20187;-70
2024/01/09 11:53:49;;;;;;;19.45;10.32;;;;;;;;;;2078304;28;20213;-70
2024/01/09 11:54:51;;;;;;;24.23;12.18;;;;;;;;;;2073274;28;20190;-70
2024/01/09 11:55:52;;;;;;;22.33;10.93;;;;;;;;;;2074043;28;20199;-70
2024/01/09 11:56:53;;;;;;;23.38;11.20;;;;;;;;;;2080857;28;20231;-69
2024/01/09 11:57:55;;;;;;;22.17;10.50;;;;;;;;;;2081564;28;20679;-69
2024/01/09 11:58:57;;;;;;;19.95;10.30;;;;;;;;;;2083079;28;20188;-70
2024/01/09 12:00:03;;;;;;;25.15;11.35;;;;;;;;;;2079464;28;20219;-70
2024/01/09 12:01:05;;;;;;;23.90;9.63;;;;;;;;;;2082002;28;20202;-70
2024/01/09 12:02:07;;;;;;;20.25;10.88;;;;;;;;;;2081224;28;20534;-70
2024/01/09 12:03:08;;;;;;;23.98;10.80;;;;;;;;;;2078073;28;20577;-70
2024/01/09 12:04:09;;;;;;;21.90;10.02;;;;;;;;;;2079071;28;20195;-70
2024/01/09 12:05:11;;;;;;;21.73;11.45;;;;;;;;;;2080174;28;20234;-70
2024/01/09 12:06:12;;;;;;;21.05;10.85;;;;;;;;;;2076411;28;20262;-70
2024/01/09 12:07:14;;;;;;;25.10;14.13;;;;;;;;;;2073208;28;20199;-70
2024/01/09 12:08:15;;;;;;;18.90;10.75;;;;;;;;;;2080458;28;20583;-69
2024/01/09 12:09:17;;;;;;;20.70;10.30;;;;;;;;;;2080942;28;20272;-69
2024/01/09 12:10:18;;;;;;;27.42;11.93;;;;;;;;;;2082716;28;20191;-69
2024/01/09 12:11:34;;;;;;;21.13;10.60;;;;;;;;;;2080566;28;20558;-70
2024/01/09 12:12:35;;;;;;;23.95;10.27;;;;;;;;;;2079032;28;20705;-69
2024/01/09 12:13:37;;;;;;;20.65;11.75;;;;;;;;;;2080765;28;20578;-70
2024/01/09 12:14:38;;;;;;;21.92;11.23;;;;;;;;;;2080458;28;20701;-69
2024/01/09 12:15:40;;;;;;;22.20;11.30;;;;;;;;;;2076301;28;20202;-69
2024/01/09 12:16:41;;;;;;;25.58;10.80;;;;;;;;;;2083207;28;20228;-69
2024/01/09 12:17:47;;;;;;;22.77;10.23;;;;;;;;;;2077873;28;20195;-69
2024/01/09 12:18:54;;;;;;;22.90;10.30;;;;;;;;;;2078345;28;20193;-70
2024/01/09 12:19:56;;;;;;;21.13;9.95;;;;;;;;;;2081870;28;20194;-70
2024/01/09 12:20:58;;;;;;;26.60;9.98;;;;;;;;;;2084079;28;20196;-70
2024/01/09 12:22:00;;;;;;;30.38;11.30;;;;;;;;;;2084482;28;20196;-70
2024/01/09 12:23:02;;;;;;;19.90;9.98;;;;;;;;;;2082955;28;20216;-70
2024/01/09 12:24:04;;;;;;;16.50;8.98;;;;;;;;;;2082596;28;20293;-69
2024/01/09 12:25:10;;;;;;;24.70;10.63;;;;;;;;;;2082296;28;20602;-70
2024/01/09 12:26:12;;;;;;;25.30;10.05;;;;;;;;;;2080167;28;20209;-69
2024/01/09 12:27:14;;;;;;;28.98;11.05;;;;;;;;;;2082244;28;20230;-69
2024/01/09 12:28:15;;;;;;;22.08;11.43;;;;;;;;;;2081530;28;20279;-70
2024/01/09 12:29:17;;;;;;;21.92;9.77;;;;;;;;;;2080867;28;20287;-70
2024/01/09 12:30:18;;;;;;;21.20;9.48;;;;;;;;;;2082339;28;20196;-70
2024/01/09 12:31:22;;;;;;;21.83;10.82;;;;;;;;;;2081720;28;20196;-70
2024/01/09 12:32:23;;;;;;;23.98;12.05;;;;;;;;;;2082517;28;20197;-70
2024/01/09 12:33:25;;;;;;;19.90;9.68;;;;;;;;;;2075343;28;20318;-69
2024/01/09 12:34:27;;;;;;;18.65;9.65;;;;;;;;;;2082849;28;20199;-70
2024/01/09 12:35:29;;;;;;;20.67;9.63;;;;;;;;;;2084284;28;20188;-70
2024/01/09 12:36:31;;;;;;;24.02;11.38;;;;;;;;;;2077725;28;20194;-70
2024/01/09 12:37:33;;;;;;;26.55;9.38;;;;;;;;;;2077739;28;20204;-69
2024/01/09 12:38:34;;;;;;;21.60;10.10;;;;;;;;;;2082907;28;20714;-70
2024/01/09 12:39:36;;;;;;;17.58;9.40;;;;;;;;;;2083414;28;20204;-70
2024/01/09 12:40:37;;;;;;;21.88;10.70;;;;;;;;;;2081916;28;20660;-70
2024/01/09 12:41:39;;;;;;;18.83;9.63;;;;;;;;;;2080690;28;20198;-70
2024/01/09 12:42:40;;;;;;;24.85;10.65;;;;;;;;;;2083428;28;20280;-70
2024/01/09 12:43:42;;;;;;;22.27;10.40;;;;;;;;;;2081626;28;20223;-70
2024/01/09 12:44:43;;;;;;;22.88;10.45;;;;;;;;;;2081339;28;20286;-70
2024/01/09 12:45:45;;;;;;;21.63;11.48;;;;;;;;;;2081410;28;20545;-70
2024/01/09 12:46:47;;;;;;;20.23;10.05;;;;;;;;;;2081241;28;20813;-70
2024/01/09 12:47:49;;;;;;;22.23;9.65;;;;;;;;;;2081661;28;20610;-69
2024/01/09 12:48:50;;;;;;;18.48;10.20;;;;;;;;;;2082308;28;20296;-70
2024/01/09 12:49:52;;;;;;;23.05;10.52;;;;;;;;;;2080326;28;20251;-69
2024/01/09 12:51:05;;;;;;;20.45;10.65;;;;;;;;;;2082833;28;20259;-70
2024/01/09 12:52:07;;;;;;;19.85;10.43;;;;;;;;;;2081499;28;20231;-69
2024/01/09 12:53:08;;;;;;;22.75;10.55;;;;;;;;;;2079016;28;20969;-69
2024/01/09 12:54:15;;;;;;;18.20;8.85;;;;;;;;;;2079399;28;20248;-70
2024/01/09 12:55:18;;;;;;;16.05;9.15;;;;;;;;;;2075457;28;20197;-69
2024/01/09 12:56:19;;;;;;;19.65;10.35;;;;;;;;;;2081866;28;20192;-69
2024/01/09 12:57:20;;;;;;;19.40;10.48;;;;;;;;;;2082596;28;20201;-69
2024/01/09 12:58:22;;;;;;;17.05;9.75;;;;;;;;;;2081559;28;20221;-69
2024/01/09 12:59:26;;;;;;;23.00;9.93;;;;;;;;;;2081635;28;20192;-69
2024/01/09 13:00:28;;;;;;;20.48;10.80;;;;;;;;;;2080454;28;20188;-69
2024/01/09 13:01:29;;;;;;;18.33;10.07;;;;;;;;;;2081191;28;20605;-69
2024/01/09 13:02:34;;;;;;;26.23;11.35;;;;;;;;;;2081129;28;20572;-70
2024/01/09 13:03:35;;;;;;;20.88;10.35;;;;;;;;;;2079780;28;20197;-69
2024/01/09 13:04:37;;;;;;;20.60;10.50;;;;;;;;;;2080092;28;20266;-69
2024/01/09 13:05:38;;;;;;;19.63;9.82;;;;;;;;;;2081463;28;20200;-69
2024/01/09 13:06:40;;;;;;;18.23;9.82;;;;;;;;;;2077545;28;20205;-70
2024/01/09 13:07:44;;;;;;;37.88;19.90;;;;;;;;;;2079742;28;20193;-66
2024/01/09 13:08:45;;;;;;;23.23;11.55;;;;;;;;;;2080208;28;20280;-66
2024/01/09 13:09:48;;;;;;;107.15;54.40;;;;;;;;;;2080112;28;20205;-69
2024/01/09 13:10:49;;;;;;;56.88;28.27;;;;;;;;;;2079683;28;20193;-68
2024/01/09 13:11:52;;;;;;;25.80;12.18;;;;;;;;;;2080156;28;20198;-68
2024/01/09 13:12:53;;;;;;;23.10;11.27;;;;;;;;;;2077495;28;20236;-68
2024/01/09 13:13:55;;;;;;;18.90;10.10;;;;;;;;;;2080461;28;20652;-69
2024/01/09 13:14:56;;;;;;;23.92;10.55;;;;;;;;;;2074913;28;20198;-61
2024/01/09 13:15:58;;;;;;;20.35;10.20;;;;;;;;;;2077982;28;20200;-68
2024/01/09 13:16:59;;;;;;;18.40;10.38;;;;;;;;;;2078684;28;20645;-68
2024/01/09 13:18:00;;;;;;;20.42;10.85;;;;;;;;;;2076638;28;20217;-69
2024/01/09 13:19:02;;;;;;;23.25;10.30;;;;;;;;;;2078427;28;20868;-68
2024/01/09 13:20:06;;;;;;;18.02;9.52;;;;;;;;;;2081249;28;20200;-68
2024/01/09 13:21:08;;;;;;;18.23;9.90;;;;;;;;;;2081960;28;20208;-68
2024/01/09 13:22:11;;;;;;;24.90;9.82;;;;;;;;;;2081136;28;20204;-68
2024/01/09 13:23:33;;;;;;;16.30;9.80;;;;;;;;;;2083509;28;20232;-68
2024/01/09 13:24:37;;;;;;;23.77;10.32;;;;;;;;;;2081260;28;20198;-68
2024/01/09 13:25:39;;;;;;;17.42;9.98;;;;;;;;;;2080491;28;20193;-68
2024/01/09 13:26:41;;;;;;;18.10;9.82;;;;;;;;;;2081686;28;20313;-68
2024/01/09 13:27:44;;;;;;;19.45;9.40;;;;;;;;;;2081370;28;20236;-68
2024/01/09 13:28:46;;;;;;;21.40;9.50;;;;;;;;;;2080901;28;20188;-68
2024/01/09 13:30:08;;;;;;;18.80;9.52;;;;;;;;;;2081829;28;20264;-68
2024/01/09 13:31:12;;;;;;;16.30;8.52;;;;;;;;;;2078577;28;20197;-67
2024/01/09 13:32:13;;;;;;;26.92;11.13;;;;;;;;;;2083620;28;20222;-67
2024/01/09 13:33:15;;;;;;;20.98;10.95;;;;;;;;;;2078030;28;20229;-61
2024/01/09 13:34:16;;;;;;;19.10;10.27;;;;;;;;;;2076848;28;20582;-60
2024/01/09 13:35:18;;;;;;;27.92;8.88;;;;;;;;;;2081579;28;20678;-61
2024/01/09 13:36:19;;;;;;;20.45;9.98;;;;;;;;;;2081250;28;20227;-63
2024/01/09 13:37:21;;;;;;;20.40;9.98;;;;;;;;;;2077740;28;20258;-61
2024/01/09 13:38:22;;;;;;;24.10;10.05;;;;;;;;;;2076316;28;20470;-61
2024/01/09 13:39:24;;;;;;;16.95;9.05;;;;;;;;;;2081261;28;20189;-61
2024/01/09 13:40:26;;;;;;;18.65;9.52;;;;;;;;;;2083155;28;20289;-61
2024/01/09 13:41:27;;;;;;;19.02;9.15;;;;;;;;;;2084195;28;20786;-61
2024/01/09 13:42:30;;;;;;;19.52;9.63;;;;;;;;;;2084573;28;20625;-62
2024/01/09 13:43:32;;;;;;;16.73;8.85;;;;;;;;;;2080532;28;20857;-61
2024/01/09 13:44:34;;;;;;;22.55;10.20;;;;;;;;;;2078310;28;20240;-61
2024/01/09 13:45:36;;;;;;;16.70;8.73;;;;;;;;;;2082255;28;20208;-62
2024/01/09 13:46:37;;;;;;;23.70;9.98;;;;;;;;;;2082815;28;20209;-61
2024/01/09 13:47:39;;;;;;;17.35;8.88;;;;;;;;;;2081305;28;20236;-61
2024/01/09 13:48:44;;;;;;;16.30;8.50;;;;;;;;;;2082778;28;20205;-61
2024/01/09 13:49:46;;;;;;;16.17;9.70;;;;;;;;;;2083851;28;20586;-61
2024/01/09 13:51:08;;;;;;;19.88;9.45;;;;;;;;;;2082842;28;20204;-61
2024/01/09 13:52:30;;;;;;;20.70;9.70;;;;;;;;;;2086061;28;20682;-61
2024/01/09 13:53:31;;;;;;;17.15;9.35;;;;;;;;;;2082362;28;20224;-61
2024/01/09 13:54:33;;;;;;;22.58;10.43;;;;;;;;;;2083218;28;20197;-61
2024/01/09 13:55:37;;;;;;;18.90;8.70;;;;;;;;;;2082617;28;20200;-61
2024/01/09 13:56:39;;;;;;;18.13;9.15;;;;;;;;;;2080718;28;20205;-68
2024/01/09 13:57:43;;;;;;;18.77;8.60;;;;;;;;;;2087320;28;20197;-61
2024/01/09 13:58:44;;;;;;;18.58;9.13;;;;;;;;;;2085526;28;20907;-61
2024/01/09 13:59:46;;;;;;;18.95;9.43;;;;;;;;;;2083027;28;20203;-61
2024/01/09 14:00:47;;;;;;;15.90;7.82;;;;;;;;;;2084450;28;20200;-61
2024/01/09 14:01:49;;;;;;;22.38;9.18;;;;;;;;;;2084343;28;20714;-62
2024/01/09 14:02:53;;;;;;;20.88;8.63;;;;;;;;;;2082922;28;20189;-62
2024/01/09 14:03:55;;;;;;;19.27;9.38;;;;;;;;;;2083916;28;20201;-61
2024/01/09 14:04:56;;;;;;;16.20;9.27;;;;;;;;;;2083310;28;20196;-61
2024/01/09 14:05:58;;;;;;;16.58;8.60;;;;;;;;;;2082583;28;20195;-60
2024/01/09 14:06:59;;;;;;;14.55;8.40;;;;;;;;;;2082593;28;20201;-61
2024/01/09 14:08:00;;;;;;;18.52;9.93;;;;;;;;;;2080056;28;20537;-61
2024/01/09 14:09:02;;;;;;;16.17;9.27;;;;;;;;;;2081979;28;20195;-61
2024/01/09 14:10:04;;;;;;;15.40;8.50;;;;;;;;;;2084590;28;20635;-68
2024/01/09 14:11:05;;;;;;;15.50;7.90;;;;;;;;;;2080012;28;20202;-68
2024/01/09 14:12:07;;;;;;;19.02;9.30;;;;;;;;;;2079882;28;20557;-68
2024/01/09 14:13:08;;;;;;;17.98;7.97;;;;;;;;;;2073103;28;20312;-67
2024/01/09 14:14:13;;;;;;;17.50;8.90;;;;;;;;;;2074805;28;20192;-67
2024/01/09 14:15:16;;;;;;;14.32;8.40;;;;;;;;;;2073921;28;20256;-68
2024/01/09 14:16:17;;;;;;;16.42;8.73;;;;;;;;;;2073304;28;20199;-67
2024/01/09 14:17:21;;;;;;;19.85;9.02;;;;;;;;;;2070751;28;20193;-67
2024/01/09 14:18:22;;;;;;;26.33;9.57;;;;;;;;;;2072083;28;20222;-67
2024/01/09 14:19:24;;;;;;;17.17;8.95;;;;;;;;;;2072038;28;20198;-67
2024/01/09 14:20:27;;;;;;;19.80;9.43;;;;;;;;;;2073470;28;20205;-67
2024/01/09 14:21:31;;;;;;;15.45;7.88;;;;;;;;;;2073236;28;20699;-68
2024/01/09 14:22:33;;;;;;;19.50;8.48;;;;;;;;;;2072348;28;20207;-68
2024/01/09 14:23:35;;;;;;;21.48;9.20;;;;;;;;;;2071450;28;20238;-60